createdAt,value
2016-10-22T00:00:43.649Z,929.54
2016-10-22T00:01:54.343Z,929.54
2016-10-22T00:03:05.044Z,929.55
2016-10-22T00:04:15.741Z,929.5
2016-10-22T00:05:26.463Z,929.57
2016-10-22T00:06:37.190Z,929.56
2016-10-22T00:07:47.887Z,929.61
2016-10-22T00:08:58.596Z,929.61
2016-10-22T00:10:09.322Z,929.64
2016-10-22T00:11:20.010Z,929.68
2016-10-22T00:12:30.710Z,929.67
2016-10-22T00:13:41.424Z,929.7
2016-10-22T00:14:52.126Z,929.75
2016-10-22T00:16:02.805Z,929.74
2016-10-22T00:17:13.496Z,929.71
2016-10-22T00:18:24.247Z,929.75
2016-10-22T00:19:34.985Z,929.72
2016-10-22T00:20:45.696Z,929.72
2016-10-22T00:21:56.403Z,929.84
2016-10-22T00:23:07.105Z,929.8
2016-10-22T00:24:17.794Z,929.83
2016-10-22T00:25:28.496Z,929.87
2016-10-22T00:26:39.204Z,929.89
2016-10-22T00:27:49.912Z,929.93
2016-10-22T00:29:00.598Z,929.88
2016-10-22T00:30:11.320Z,929.84
2016-10-22T00:31:22.048Z,929.88
2016-10-22T00:32:32.750Z,929.91
2016-10-22T00:33:43.430Z,929.94
2016-10-22T00:34:54.160Z,929.75
2016-10-22T00:36:04.872Z,929.82
2016-10-22T00:37:15.621Z,929.86
2016-10-22T00:38:26.300Z,929.88
2016-10-22T00:39:37.021Z,929.85
2016-10-22T00:40:47.719Z,929.89
2016-10-22T00:41:58.414Z,929.88
2016-10-22T00:43:09.122Z,929.91
2016-10-22T00:44:19.822Z,929.96
2016-10-22T00:45:30.522Z,929.88
2016-10-22T00:46:41.735Z,929.89
2016-10-22T00:47:52.423Z,929.93
2016-10-22T00:49:03.150Z,929.93
2016-10-22T00:50:13.869Z,929.88
2016-10-22T00:51:24.622Z,930.03
2016-10-22T00:52:35.842Z,930
2016-10-22T00:54:18.214Z,930.09
2016-10-22T00:55:28.929Z,930.13
2016-10-22T00:56:39.679Z,930.19
2016-10-22T00:57:50.384Z,930.18
2016-10-22T00:59:01.128Z,930.1
2016-10-22T01:00:11.865Z,930.14
2016-10-22T01:01:22.591Z,930.09
2016-10-22T01:02:33.325Z,930.12
2016-10-22T01:03:44.017Z,930.16
2016-10-22T01:04:54.715Z,930.17
2016-10-22T01:06:05.456Z,930.17
2016-10-22T01:07:16.164Z,930.17
2016-10-22T01:08:26.873Z,930.17
2016-10-22T01:09:37.580Z,930.22
2016-10-22T01:10:48.285Z,930.19
2016-10-22T01:11:58.986Z,930.23
2016-10-22T01:13:09.688Z,930.18
2016-10-22T01:14:20.390Z,930.1
2016-10-22T01:15:31.125Z,930.09
2016-10-22T01:16:41.834Z,930.03
2016-10-22T01:17:52.534Z,930.05
2016-10-22T01:19:03.236Z,929.99
2016-10-22T01:20:13.920Z,929.95
2016-10-22T01:21:24.617Z,929.97
2016-10-22T01:22:35.305Z,930.05
2016-10-22T01:23:45.977Z,930.02
2016-10-22T01:24:56.707Z,930.01
2016-10-22T01:26:07.402Z,929.95
2016-10-22T01:27:18.130Z,930.03
2016-10-22T01:28:28.859Z,930.04
2016-10-22T01:29:39.585Z,930.06
2016-10-22T01:30:50.343Z,930.07
2016-10-22T01:32:01.040Z,930.04
2016-10-22T01:33:11.777Z,930.05
2016-10-22T01:34:22.507Z,930.04
2016-10-22T01:35:33.257Z,930.06
2016-10-22T01:36:43.959Z,929.97
2016-10-22T01:37:54.635Z,929.92
2016-10-22T01:39:06.323Z,929.9
2016-10-22T01:40:16.998Z,929.92
2016-10-22T01:41:27.692Z,929.91
2016-10-22T01:42:38.410Z,929.91
2016-10-22T01:43:49.121Z,929.88
2016-10-22T01:44:59.830Z,929.79
2016-10-22T01:46:10.555Z,929.88
2016-10-22T01:47:21.262Z,929.84
2016-10-22T01:48:31.993Z,929.81
2016-10-22T01:49:42.695Z,929.79
2016-10-22T01:50:53.428Z,929.71
2016-10-22T01:52:04.128Z,929.78
2016-10-22T01:53:14.831Z,929.76
2016-10-22T01:54:25.553Z,929.77
2016-10-22T01:55:36.247Z,929.82
2016-10-22T01:56:47.499Z,929.82
2016-10-22T01:57:58.188Z,929.79
2016-10-22T01:59:08.914Z,929.77
2016-10-22T02:00:19.613Z,929.75
2016-10-22T02:01:30.334Z,929.7
2016-10-22T02:02:41.064Z,929.65
2016-10-22T02:03:52.278Z,929.62
2016-10-22T02:05:02.997Z,929.61
2016-10-22T02:06:14.252Z,929.62
2016-10-22T02:07:24.979Z,929.6
2016-10-22T02:08:35.704Z,929.62
2016-10-22T02:09:46.414Z,929.64
2016-10-22T02:10:57.143Z,929.6
2016-10-22T02:12:07.860Z,929.65
2016-10-22T02:13:18.595Z,929.63
2016-10-22T02:14:29.288Z,929.65
2016-10-22T02:15:39.971Z,929.65
2016-10-22T02:16:50.646Z,929.66
2016-10-22T02:18:01.360Z,929.65
2016-10-22T02:19:12.107Z,929.64
2016-10-22T02:20:22.804Z,929.59
2016-10-22T02:21:33.538Z,929.61
2016-10-22T02:22:44.262Z,929.6
2016-10-22T02:23:54.983Z,929.59
2016-10-22T02:25:05.694Z,929.59
2016-10-22T02:26:16.429Z,929.64
2016-10-22T02:27:27.652Z,929.65
2016-10-22T02:28:38.368Z,929.71
2016-10-22T02:29:49.094Z,929.64
2016-10-22T02:30:59.832Z,929.71
2016-10-22T02:32:10.543Z,929.72
2016-10-22T02:33:21.236Z,929.72
2016-10-22T02:34:31.954Z,929.73
2016-10-22T02:35:42.667Z,929.8
2016-10-22T02:36:53.410Z,929.75
2016-10-22T02:38:04.671Z,929.76
2016-10-22T02:39:15.382Z,929.82
2016-10-22T02:40:26.083Z,929.78
2016-10-22T02:41:37.331Z,929.74
2016-10-22T02:42:48.085Z,929.72
2016-10-22T02:43:58.778Z,929.69
2016-10-22T02:45:09.485Z,929.7
2016-10-22T02:46:20.220Z,929.74
2016-10-22T02:47:30.941Z,929.67
2016-10-22T02:48:41.650Z,929.71
2016-10-22T02:49:52.359Z,929.68
2016-10-22T02:51:03.069Z,929.69
2016-10-22T02:52:13.779Z,929.7
2016-10-22T02:53:24.488Z,929.7
2016-10-22T02:54:35.172Z,929.72
2016-10-22T02:55:45.873Z,929.71
2016-10-22T02:56:56.621Z,929.71
2016-10-22T02:58:07.333Z,929.68
2016-10-22T02:59:18.031Z,929.72
2016-10-22T03:00:28.760Z,929.68
2016-10-22T03:01:39.974Z,929.65
2016-10-22T03:02:50.695Z,929.73
2016-10-22T03:04:01.389Z,929.71
2016-10-22T03:05:12.070Z,929.71
2016-10-22T03:06:22.781Z,929.71
2016-10-22T03:07:33.535Z,929.76
2016-10-22T03:08:44.236Z,929.6
2016-10-22T03:09:55.454Z,929.63
2016-10-22T03:11:06.141Z,929.6
2016-10-22T03:12:16.831Z,929.64
2016-10-22T03:13:27.529Z,929.62
2016-10-22T03:14:38.210Z,929.63
2016-10-22T03:15:48.930Z,929.62
2016-10-22T03:16:59.629Z,929.62
2016-10-22T03:18:10.358Z,929.63
2016-10-22T03:19:21.034Z,929.64
2016-10-22T03:20:31.784Z,929.61
2016-10-22T03:21:42.564Z,929.61
2016-10-22T03:22:53.324Z,929.6
2016-10-22T03:24:04.007Z,929.59
2016-10-22T03:25:14.725Z,929.62
2016-10-22T03:26:25.586Z,929.61
2016-10-22T03:27:36.274Z,929.54
2016-10-22T03:28:46.984Z,929.56
2016-10-22T03:29:58.220Z,929.56
2016-10-22T03:31:09.409Z,929.47
2016-10-22T03:32:20.132Z,929.51
2016-10-22T03:33:30.859Z,929.53
2016-10-22T03:34:42.658Z,929.54
2016-10-22T03:35:54.426Z,929.55
2016-10-22T03:37:05.141Z,929.48
2016-10-22T03:38:16.917Z,929.48
2016-10-22T03:39:27.623Z,929.46
2016-10-22T03:40:38.328Z,929.49
2016-10-22T03:41:49.020Z,929.44
2016-10-22T03:42:59.735Z,929.46
2016-10-22T03:44:10.451Z,929.43
2016-10-22T03:45:21.669Z,929.42
2016-10-22T03:46:32.348Z,929.41
2016-10-22T03:47:43.596Z,929.34
2016-10-22T03:48:54.827Z,929.35
2016-10-22T03:50:06.612Z,929.36
2016-10-22T03:51:18.327Z,929.26
2016-10-22T03:52:30.573Z,929.33
2016-10-22T03:53:41.287Z,929.33
2016-10-22T03:54:52.010Z,929.26
2016-10-22T03:56:02.752Z,929.28
2016-10-22T03:57:13.465Z,929.22
2016-10-22T03:58:24.186Z,929.17
2016-10-22T03:59:34.892Z,929.19
2016-10-22T04:00:46.100Z,929.21
2016-10-22T04:01:56.821Z,929.21
2016-10-22T04:03:07.541Z,929.2
2016-10-22T04:04:18.251Z,929.15
2016-10-22T04:05:29.505Z,929.15
2016-10-22T04:06:40.735Z,929.01
2016-10-22T04:07:51.438Z,929.03
2016-10-22T04:09:02.171Z,929.01
2016-10-22T04:10:13.397Z,928.94
2016-10-22T04:11:24.117Z,928.98
2016-10-22T04:12:34.878Z,928.92
2016-10-22T04:13:46.105Z,928.96
2016-10-22T04:14:57.352Z,928.98
2016-10-22T04:16:08.053Z,928.91
2016-10-22T04:17:19.280Z,928.92
2016-10-22T04:18:30.530Z,928.92
2016-10-22T04:19:41.244Z,928.87
2016-10-22T04:20:52.465Z,928.86
2016-10-22T04:22:03.200Z,928.83
2016-10-22T04:23:13.915Z,928.85
2016-10-22T04:24:24.642Z,928.75
2016-10-22T04:25:35.331Z,928.86
2016-10-22T04:26:46.036Z,928.79
2016-10-22T04:27:56.763Z,928.81
2016-10-22T04:29:07.459Z,928.73
2016-10-22T04:30:18.686Z,928.82
2016-10-22T04:31:29.404Z,928.79
2016-10-22T04:32:40.148Z,928.75
2016-10-22T04:33:51.382Z,928.71
2016-10-22T04:35:02.071Z,928.62
2016-10-22T04:36:12.766Z,928.7
2016-10-22T04:37:23.981Z,928.71
2016-10-22T04:38:34.702Z,928.66
2016-10-22T04:39:45.394Z,928.71
2016-10-22T04:40:56.116Z,928.73
2016-10-22T04:42:07.862Z,928.72
2016-10-22T04:43:19.080Z,928.74
2016-10-22T04:44:29.770Z,928.64
2016-10-22T04:45:40.445Z,928.7
2016-10-22T04:46:51.660Z,928.61
2016-10-22T04:48:02.386Z,928.62
2016-10-22T04:49:13.620Z,928.63
2016-10-22T04:50:24.314Z,928.58
2016-10-22T04:51:35.062Z,928.57
2016-10-22T04:52:46.286Z,928.53
2016-10-22T04:53:57.015Z,928.6
2016-10-22T04:55:08.252Z,928.57
2016-10-22T04:56:18.966Z,928.61
2016-10-22T04:57:29.654Z,928.6
2016-10-22T04:58:40.358Z,928.63
2016-10-22T04:59:51.561Z,928.54
2016-10-22T05:01:02.294Z,928.58
2016-10-22T05:02:12.991Z,928.57
2016-10-22T05:03:24.248Z,928.57
2016-10-22T05:04:34.959Z,928.61
2016-10-22T05:05:45.646Z,928.56
2016-10-22T05:06:56.896Z,928.61
2016-10-22T05:08:07.597Z,928.61
2016-10-22T05:09:18.311Z,928.54
2016-10-22T05:10:29.560Z,928.62
2016-10-22T05:11:40.285Z,928.64
2016-10-22T05:12:50.988Z,928.64
2016-10-22T05:14:01.679Z,928.62
2016-10-22T05:15:12.350Z,928.61
2016-10-22T05:16:23.067Z,928.68
2016-10-22T05:17:33.786Z,928.64
2016-10-22T05:18:45.027Z,928.67
2016-10-22T05:19:55.705Z,928.62
2016-10-22T05:21:06.390Z,928.63
2016-10-22T05:22:17.080Z,928.67
2016-10-22T05:23:27.775Z,928.68
2016-10-22T05:24:38.488Z,928.74
2016-10-22T05:25:49.207Z,928.69
2016-10-22T05:26:59.916Z,928.78
2016-10-22T05:28:10.605Z,928.75
2016-10-22T05:29:21.339Z,928.72
2016-10-22T05:30:32.047Z,928.69
2016-10-22T05:31:42.758Z,928.66
2016-10-22T05:32:53.462Z,928.69
2016-10-22T05:34:04.141Z,928.67
2016-10-22T05:35:14.856Z,928.64
2016-10-22T05:36:25.566Z,928.6
2016-10-22T05:37:36.295Z,928.69
2016-10-22T05:38:47.042Z,928.71
2016-10-22T05:39:57.768Z,928.71
2016-10-22T05:41:08.500Z,928.71
2016-10-22T05:42:19.212Z,928.65
2016-10-22T05:43:29.971Z,928.71
2016-10-22T05:44:40.737Z,928.69
2016-10-22T05:45:51.455Z,928.74
2016-10-22T05:47:02.178Z,928.66
2016-10-22T05:48:12.909Z,928.75
2016-10-22T05:49:23.616Z,928.65
2016-10-22T05:50:34.302Z,928.75
2016-10-22T05:51:45.031Z,928.76
2016-10-22T05:52:55.737Z,928.77
2016-10-22T05:54:06.435Z,928.84
2016-10-22T05:55:17.137Z,928.83
2016-10-22T05:56:27.820Z,928.81
2016-10-22T05:57:38.533Z,928.88
2016-10-22T05:58:49.229Z,928.89
2016-10-22T05:59:59.923Z,928.78
2016-10-22T06:01:10.626Z,928.91
2016-10-22T06:02:21.359Z,928.86
2016-10-22T06:03:32.093Z,928.64
2016-10-22T06:04:43.131Z,928.79
2016-10-22T06:05:54.450Z,928.76
2016-10-22T06:07:05.165Z,928.58
2016-10-22T06:08:15.867Z,928.68
2016-10-22T06:09:26.595Z,928.67
2016-10-22T06:10:37.342Z,928.63
2016-10-22T06:11:48.288Z,928.65
2016-10-22T06:12:59.044Z,928.67
2016-10-22T06:14:09.756Z,928.64
2016-10-22T06:15:20.453Z,928.55
2016-10-22T06:16:31.172Z,928.61
2016-10-22T06:17:41.868Z,928.57
2016-10-22T06:18:52.596Z,928.55
2016-10-22T06:20:03.342Z,928.55
2016-10-22T06:21:14.082Z,928.56
2016-10-22T06:22:24.864Z,928.55
2016-10-22T06:23:35.574Z,928.54
2016-10-22T06:24:46.309Z,928.54
2016-10-22T06:25:57.015Z,928.53
2016-10-22T06:27:07.727Z,928.55
2016-10-22T06:28:18.431Z,928.58
2016-10-22T06:29:29.138Z,928.54
2016-10-22T06:30:39.897Z,928.49
2016-10-22T06:31:50.643Z,928.44
2016-10-22T06:33:01.344Z,928.5
2016-10-22T06:34:12.072Z,928.37
2016-10-22T06:35:22.784Z,928.48
2016-10-22T06:36:33.486Z,928.51
2016-10-22T06:37:44.216Z,928.5
2016-10-22T06:38:54.928Z,928.5
2016-10-22T06:40:05.644Z,928.52
2016-10-22T06:41:16.327Z,928.59
2016-10-22T06:42:27.026Z,928.59
2016-10-22T06:43:37.737Z,928.59
2016-10-22T06:44:48.425Z,928.64
2016-10-22T06:45:59.130Z,928.57
2016-10-22T06:47:09.832Z,928.57
2016-10-22T06:48:20.532Z,928.55
2016-10-22T06:49:31.266Z,928.51
2016-10-22T06:50:41.969Z,928.55
2016-10-22T06:51:52.685Z,928.53
2016-10-22T06:53:03.421Z,928.61
2016-10-22T06:54:14.109Z,928.62
2016-10-22T06:55:24.817Z,928.59
2016-10-22T06:56:35.546Z,928.65
2016-10-22T06:57:46.253Z,928.65
2016-10-22T06:58:56.974Z,928.72
2016-10-22T07:00:07.729Z,928.68
2016-10-22T07:01:18.440Z,928.73
2016-10-22T07:02:29.167Z,928.71
2016-10-22T07:03:40.384Z,928.7
2016-10-22T07:04:51.151Z,928.63
2016-10-22T07:06:01.855Z,928.75
2016-10-22T07:07:12.538Z,928.74
2016-10-22T07:08:23.231Z,928.71
2016-10-22T07:09:33.920Z,928.73
2016-10-22T07:10:44.625Z,928.75
2016-10-22T07:11:55.338Z,928.72
2016-10-22T07:13:06.044Z,928.76
2016-10-22T07:14:16.763Z,928.79
2016-10-22T07:15:27.453Z,928.74
2016-10-22T07:16:38.185Z,928.75
2016-10-22T07:17:48.946Z,928.72
2016-10-22T07:18:59.638Z,928.65
2016-10-22T07:20:10.329Z,928.62
2016-10-22T07:21:21.042Z,928.73
2016-10-22T07:22:31.745Z,928.66
2016-10-22T07:23:42.456Z,928.66
2016-10-22T07:24:53.160Z,928.72
2016-10-22T07:26:03.896Z,928.72
2016-10-22T07:27:14.635Z,928.69
2016-10-22T07:28:25.352Z,928.73
2016-10-22T07:29:36.067Z,928.78
2016-10-22T07:30:46.775Z,928.79
2016-10-22T07:31:57.491Z,928.79
2016-10-22T07:33:08.733Z,928.74
2016-10-22T07:34:19.445Z,928.76
2016-10-22T07:35:30.155Z,928.79
2016-10-22T07:36:40.876Z,928.81
2016-10-22T07:37:51.573Z,928.84
2016-10-22T07:39:02.262Z,928.9
2016-10-22T07:40:12.956Z,928.94
2016-10-22T07:41:23.648Z,928.86
2016-10-22T07:42:34.931Z,928.97
2016-10-22T07:43:45.645Z,929.06
2016-10-22T07:44:56.335Z,929.06
2016-10-22T07:46:07.048Z,929.1
2016-10-22T07:47:17.745Z,929.11
2016-10-22T07:48:28.432Z,929.13
2016-10-22T07:49:39.137Z,929.05
2016-10-22T07:50:49.852Z,929.14
2016-10-22T07:52:00.559Z,929.12
2016-10-22T07:53:11.284Z,929.13
2016-10-22T07:54:22.028Z,929.18
2016-10-22T07:55:32.745Z,929.17
2016-10-22T07:56:43.462Z,929.09
2016-10-22T07:57:54.177Z,928.99
2016-10-22T07:59:04.978Z,929.08
2016-10-22T08:00:15.684Z,929.08
2016-10-22T08:01:26.425Z,929.08
2016-10-22T08:02:37.133Z,929.11
2016-10-22T08:03:47.835Z,929.14
2016-10-22T08:04:58.538Z,929.15
2016-10-22T08:06:09.243Z,929.1
2016-10-22T08:07:19.929Z,929.11
2016-10-22T08:08:30.617Z,929.07
2016-10-22T08:09:41.341Z,929.13
2016-10-22T08:10:52.040Z,929.14
2016-10-22T08:12:02.753Z,929.22
2016-10-22T08:13:13.461Z,929.12
2016-10-22T08:14:24.174Z,929.13
2016-10-22T08:15:34.909Z,929.18
2016-10-22T08:16:45.635Z,929.15
2016-10-22T08:17:56.859Z,929.16
2016-10-22T08:19:07.598Z,929.11
2016-10-22T08:20:18.315Z,929.1
2016-10-22T08:21:29.001Z,929.12
2016-10-22T08:22:39.715Z,929.1
2016-10-22T08:23:50.470Z,929.22
2016-10-22T08:25:01.163Z,929.2
2016-10-22T08:26:11.851Z,929.21
2016-10-22T08:27:22.562Z,929.25
2016-10-22T08:28:33.244Z,929.06
2016-10-22T08:29:44.468Z,929.25
2016-10-22T08:30:55.152Z,929.23
2016-10-22T08:32:05.827Z,929.31
2016-10-22T08:33:16.538Z,929.34
2016-10-22T08:34:27.240Z,929.34
2016-10-22T08:35:37.951Z,929.36
2016-10-22T08:36:48.650Z,929.37
2016-10-22T08:37:59.370Z,929.37
2016-10-22T08:39:10.102Z,929.39
2016-10-22T08:40:20.820Z,929.48
2016-10-22T08:41:31.513Z,929.45
2016-10-22T08:42:42.248Z,929.51
2016-10-22T08:43:53.461Z,929.52
2016-10-22T08:45:04.182Z,929.58
2016-10-22T08:46:14.951Z,929.55
2016-10-22T08:47:25.667Z,929.54
2016-10-22T08:48:36.399Z,929.58
2016-10-22T08:49:47.149Z,929.54
2016-10-22T08:50:57.872Z,929.54
2016-10-22T08:52:08.584Z,929.5
2016-10-22T08:53:19.291Z,929.54
2016-10-22T08:54:29.998Z,929.58
2016-10-22T08:55:40.710Z,929.62
2016-10-22T08:56:51.481Z,929.56
2016-10-22T08:58:02.187Z,929.66
2016-10-22T08:59:12.891Z,929.69
2016-10-22T09:00:23.600Z,929.72
2016-10-22T09:01:34.325Z,929.71
2016-10-22T09:02:45.021Z,929.7
2016-10-22T09:03:55.710Z,929.71
2016-10-22T09:05:06.445Z,929.67
2016-10-22T09:06:17.174Z,929.75
2016-10-22T09:07:27.896Z,929.75
2016-10-22T09:08:38.594Z,929.81
2016-10-22T09:09:49.312Z,929.89
2016-10-22T09:10:59.987Z,929.88
2016-10-22T09:12:10.681Z,929.86
2016-10-22T09:13:21.396Z,929.85
2016-10-22T09:14:32.118Z,929.93
2016-10-22T09:15:42.824Z,929.87
2016-10-22T09:16:53.517Z,929.81
2016-10-22T09:18:04.211Z,929.91
2016-10-22T09:19:14.905Z,929.91
2016-10-22T09:20:25.607Z,929.94
2016-10-22T09:21:36.301Z,929.93
2016-10-22T09:22:47.019Z,929.95
2016-10-22T09:23:57.733Z,930
2016-10-22T09:25:08.419Z,929.96
2016-10-22T09:26:19.132Z,929.96
2016-10-22T09:27:29.833Z,929.96
2016-10-22T09:28:40.560Z,929.97
2016-10-22T09:29:51.258Z,929.94
2016-10-22T09:31:01.989Z,929.98
2016-10-22T09:32:12.720Z,930.04
2016-10-22T09:33:23.428Z,929.99
2016-10-22T09:34:34.125Z,930.01
2016-10-22T09:35:44.812Z,929.99
2016-10-22T09:36:55.674Z,930.02
2016-10-22T09:38:06.468Z,930.02
2016-10-22T09:39:17.174Z,929.99
2016-10-22T09:40:27.878Z,930.03
2016-10-22T09:41:38.587Z,929.94
2016-10-22T09:42:49.289Z,930.01
2016-10-22T09:43:59.984Z,930.06
2016-10-22T09:45:10.692Z,930.11
2016-10-22T09:46:21.377Z,930.06
2016-10-22T09:47:32.090Z,930.08
2016-10-22T09:48:42.784Z,930.14
2016-10-22T09:49:53.495Z,930.11
2016-10-22T09:51:04.213Z,930.2
2016-10-22T09:52:15.438Z,930.21
2016-10-22T09:53:26.130Z,930.24
2016-10-22T09:54:36.811Z,930.2
2016-10-22T09:55:47.532Z,930.29
2016-10-22T09:56:58.224Z,930.28
2016-10-22T09:58:08.936Z,930.25
2016-10-22T09:59:19.634Z,930.3
2016-10-22T10:00:30.378Z,930.31
2016-10-22T10:01:41.083Z,930.38
2016-10-22T10:02:51.792Z,930.3
2016-10-22T10:04:02.491Z,930.38
2016-10-22T10:05:13.700Z,930.38
2016-10-22T10:06:24.532Z,930.43
2016-10-22T10:07:35.577Z,930.4
2016-10-22T10:08:46.275Z,930.4
2016-10-22T10:09:57.491Z,930.41
2016-10-22T10:11:08.174Z,930.37
2016-10-22T10:12:18.882Z,930.44
2016-10-22T10:13:29.593Z,930.45
2016-10-22T10:14:40.304Z,930.42
2016-10-22T10:15:51.022Z,930.42
2016-10-22T10:17:01.745Z,930.47
2016-10-22T10:18:12.492Z,930.48
2016-10-22T10:19:23.224Z,930.46
2016-10-22T10:20:33.937Z,930.51
2016-10-22T10:21:44.668Z,930.55
2016-10-22T10:22:55.376Z,930.6
2016-10-22T10:24:06.093Z,930.66
2016-10-22T10:25:16.788Z,930.68
2016-10-22T10:26:27.490Z,930.64
2016-10-22T10:27:38.177Z,930.64
2016-10-22T10:28:48.861Z,930.66
2016-10-22T10:29:59.577Z,930.76
2016-10-22T10:31:10.296Z,930.81
2016-10-22T10:32:21.019Z,930.84
2016-10-22T10:33:31.749Z,930.83
2016-10-22T10:34:42.936Z,930.84
2016-10-22T10:35:53.642Z,930.79
2016-10-22T10:37:04.325Z,930.88
2016-10-22T10:38:15.034Z,930.85
2016-10-22T10:39:25.714Z,930.87
2016-10-22T10:40:36.429Z,930.94
2016-10-22T10:41:47.639Z,930.98
2016-10-22T10:42:58.333Z,931.02
2016-10-22T10:44:09.079Z,930.98
2016-10-22T10:45:19.786Z,931.03
2016-10-22T10:46:30.492Z,931.1
2016-10-22T10:47:41.692Z,931.12
2016-10-22T10:48:52.383Z,931.08
2016-10-22T10:50:03.134Z,931.09
2016-10-22T10:51:13.837Z,931.06
2016-10-22T10:52:24.594Z,931.12
2016-10-22T10:53:35.300Z,931.07
2016-10-22T10:54:46.061Z,931.16
2016-10-22T10:55:56.792Z,931.23
2016-10-22T10:57:07.496Z,931.29
2016-10-22T10:58:18.188Z,931.29
2016-10-22T10:59:28.878Z,931.28
2016-10-22T11:00:39.573Z,931.34
2016-10-22T11:01:50.355Z,931.33
2016-10-22T11:03:01.099Z,931.24
2016-10-22T11:04:11.782Z,931.38
2016-10-22T11:05:22.490Z,931.37
2016-10-22T11:06:33.208Z,931.41
2016-10-22T11:07:44.397Z,931.46
2016-10-22T11:08:55.092Z,931.39
2016-10-22T11:10:05.847Z,931.35
2016-10-22T11:11:16.556Z,931.41
2016-10-22T11:12:27.255Z,931.45
2016-10-22T11:13:38.479Z,931.41
2016-10-22T11:14:49.187Z,931.47
2016-10-22T11:15:59.923Z,931.43
2016-10-22T11:17:10.642Z,931.43
2016-10-22T11:18:21.337Z,931.46
2016-10-22T11:19:32.064Z,931.47
2016-10-22T11:20:42.784Z,931.38
2016-10-22T11:21:53.470Z,931.38
2016-10-22T11:23:04.183Z,931.39
2016-10-22T11:24:14.899Z,931.2
2016-10-22T11:25:25.627Z,931.33
2016-10-22T11:26:36.345Z,931.3
2016-10-22T11:27:47.057Z,931.31
2016-10-22T11:28:57.755Z,931.34
2016-10-22T11:30:08.439Z,931.28
2016-10-22T11:31:19.159Z,931.26
2016-10-22T11:32:30.100Z,931.3
2016-10-22T11:33:40.818Z,931.34
2016-10-22T11:34:51.536Z,931.38
2016-10-22T11:36:02.266Z,931.38
2016-10-22T11:37:12.986Z,931.22
2016-10-22T11:38:23.661Z,931.33
2016-10-22T11:39:34.375Z,931.28
2016-10-22T11:40:45.076Z,931.37
2016-10-22T11:41:55.785Z,931.36
2016-10-22T11:43:06.483Z,931.4
2016-10-22T11:44:17.189Z,931.44
2016-10-22T11:45:27.862Z,931.4
2016-10-22T11:46:38.565Z,931.42
2016-10-22T11:47:49.268Z,931.36
2016-10-22T11:48:59.995Z,931.4
2016-10-22T11:50:10.666Z,931.37
2016-10-22T11:51:21.400Z,931.4
2016-10-22T11:52:32.126Z,931.34
2016-10-22T11:53:42.844Z,931.31
2016-10-22T11:54:53.568Z,931.37
2016-10-22T11:56:04.279Z,931.33
2016-10-22T11:57:14.975Z,931.44
2016-10-22T11:58:25.686Z,931.43
2016-10-22T11:59:36.412Z,931.4
2016-10-22T12:00:47.641Z,931.41
2016-10-22T12:01:58.359Z,931.46
2016-10-22T12:03:09.068Z,931.49
2016-10-22T12:04:19.798Z,931.34
2016-10-22T12:05:31.033Z,931.35
2016-10-22T12:06:42.184Z,931.23
2016-10-22T12:07:53.375Z,931.41
2016-10-22T12:09:04.552Z,931.42
2016-10-22T12:10:15.709Z,931.39
2016-10-22T12:11:26.859Z,931.41
2016-10-22T12:12:38.014Z,931.4
2016-10-22T12:13:49.177Z,931.41
2016-10-22T12:15:00.325Z,931.49
2016-10-22T12:16:11.494Z,931.41
2016-10-22T12:17:22.638Z,931.37
2016-10-22T12:18:33.812Z,931.4
2016-10-22T12:19:44.956Z,931.41
2016-10-22T12:20:56.109Z,931.39
2016-10-22T12:22:07.264Z,931.37
2016-10-22T12:23:18.424Z,931.37
2016-10-22T12:24:29.572Z,931.33
2016-10-22T12:25:40.717Z,931.37
2016-10-22T12:26:51.864Z,931.35
2016-10-22T12:28:03.010Z,931.38
2016-10-22T12:29:14.179Z,931.41
2016-10-22T12:30:25.374Z,931.33
2016-10-22T12:31:36.560Z,931.35
2016-10-22T12:32:47.722Z,931.34
2016-10-22T12:33:58.904Z,931.37
2016-10-22T12:35:10.095Z,931.35
2016-10-22T12:36:21.342Z,931.4
2016-10-22T12:37:33.069Z,931.37
2016-10-22T12:38:44.263Z,931.35
2016-10-22T12:39:55.426Z,931.37
2016-10-22T12:41:06.583Z,931.37
2016-10-22T12:42:17.737Z,931.32
2016-10-22T12:43:28.896Z,931.39
2016-10-22T12:44:40.061Z,931.37
2016-10-22T12:45:51.224Z,931.44
2016-10-22T12:47:02.404Z,931.54
2016-10-22T12:48:13.577Z,931.48
2016-10-22T12:49:24.732Z,931.51
2016-10-22T12:50:35.902Z,931.53
2016-10-22T12:51:47.068Z,931.49
2016-10-22T12:52:58.229Z,931.51
2016-10-22T12:54:09.391Z,931.54
2016-10-22T12:55:20.550Z,931.52
2016-10-22T12:56:32.333Z,931.51
2016-10-22T12:57:43.530Z,931.52
2016-10-22T12:58:54.689Z,931.57
2016-10-22T13:00:05.864Z,931.58
2016-10-22T13:01:17.023Z,931.6
2016-10-22T13:02:28.173Z,931.61
2016-10-22T13:03:39.367Z,931.61
2016-10-22T13:04:50.525Z,931.55
2016-10-22T13:06:01.698Z,931.54
2016-10-22T13:07:12.888Z,931.46
2016-10-22T13:08:24.047Z,931.43
2016-10-22T13:09:35.236Z,931.39
2016-10-22T13:10:46.422Z,931.4
2016-10-22T13:11:57.596Z,931.34
2016-10-22T13:13:09.485Z,931.4
2016-10-22T13:14:20.647Z,931.33
2016-10-22T13:15:31.798Z,931.35
2016-10-22T13:16:42.974Z,931.32
2016-10-22T13:17:54.234Z,931.36
2016-10-22T13:19:05.410Z,931.28
2016-10-22T13:20:16.599Z,931.42
2016-10-22T13:21:27.789Z,931.32
2016-10-22T13:22:38.979Z,931.32
2016-10-22T13:23:50.191Z,931.42
2016-10-22T13:25:01.373Z,931.36
2016-10-22T13:26:12.569Z,931.38
2016-10-22T13:27:23.752Z,931.29
2016-10-22T13:28:34.913Z,931.27
2016-10-22T13:29:46.085Z,931.36
2016-10-22T13:30:57.231Z,931.33
2016-10-22T13:32:08.400Z,931.36
2016-10-22T13:33:19.584Z,931.31
2016-10-22T13:34:30.729Z,931.27
2016-10-22T13:35:41.892Z,931.2
2016-10-22T13:36:53.083Z,931.13
2016-10-22T13:38:04.237Z,931.17
2016-10-22T13:39:15.403Z,931
2016-10-22T13:40:26.550Z,931.09
2016-10-22T13:41:37.704Z,931.15
2016-10-22T13:42:48.846Z,931.06
2016-10-22T13:44:00.031Z,931.16
2016-10-22T13:45:11.208Z,931.14
2016-10-22T13:46:22.377Z,931.1
2016-10-22T13:47:33.565Z,931.06
2016-10-22T13:48:44.745Z,931.03
2016-10-22T13:49:55.919Z,931.12
2016-10-22T13:51:07.075Z,931.1
2016-10-22T13:52:18.253Z,931.14
2016-10-22T13:53:29.427Z,931.14
2016-10-22T13:54:40.596Z,931.13
2016-10-22T13:55:51.746Z,931.14
2016-10-22T13:57:02.922Z,931.1
2016-10-22T13:58:14.090Z,931.12
2016-10-22T13:59:25.287Z,931.2
2016-10-22T14:00:36.510Z,931.15
2016-10-22T14:01:47.662Z,931.12
2016-10-22T14:02:58.818Z,931.23
2016-10-22T14:04:10.531Z,931.12
2016-10-22T14:05:21.702Z,931.13
2016-10-22T14:06:32.850Z,931.05
2016-10-22T14:07:44.014Z,931.08
2016-10-22T14:08:55.187Z,931.06
2016-10-22T14:10:06.357Z,931.09
2016-10-22T14:11:17.509Z,931.08
2016-10-22T14:12:28.657Z,931.09
2016-10-22T14:13:39.809Z,931
2016-10-22T14:14:50.964Z,930.93
2016-10-22T14:16:02.122Z,931.08
2016-10-22T14:17:13.266Z,931.1
2016-10-22T14:18:24.443Z,931.09
2016-10-22T14:19:35.613Z,931.14
2016-10-22T14:20:46.791Z,931.18
2016-10-22T14:21:57.979Z,931.21
2016-10-22T14:23:09.178Z,931.12
2016-10-22T14:24:20.363Z,931.01
2016-10-22T14:25:31.552Z,931.08
2016-10-22T14:26:42.722Z,931.14
2016-10-22T14:27:53.920Z,931.1
2016-10-22T14:29:05.098Z,931.11
2016-10-22T14:30:16.271Z,931.05
2016-10-22T14:31:27.435Z,931.12
2016-10-22T14:32:38.597Z,931.15
2016-10-22T14:33:49.804Z,931.11
2016-10-22T14:35:00.980Z,931.16
2016-10-22T14:36:12.167Z,931.17
2016-10-22T14:37:23.327Z,931.12
2016-10-22T14:38:34.500Z,931.12
2016-10-22T14:39:45.702Z,931.1
2016-10-22T14:40:56.910Z,931.08
2016-10-22T14:42:08.074Z,931.02
2016-10-22T14:43:19.226Z,931.08
2016-10-22T14:44:30.363Z,931.02
2016-10-22T14:45:41.534Z,930.97
2016-10-22T14:46:52.715Z,930.95